Time;durP1;ratioP1;P1;durP2;ratioP2;P2;SDS_P1;SDS_P2;PMS_P1;PMS_P2;Temp;Humidity;BMP_temperature;BMP_pressure;BME280_temperature;BME280_humidity;BME280_pressure;Samples;Min_cycle;Max_cycle;Signal;HPM_P1;HPM_P2
2023/04/11 00:02:03;;;;;;;6.47;5.97;;;9.30;99.90;;;;;;5074107;28;20206;-66
2023/04/11 00:04:29;;;;;;;6.00;5.47;;;9.30;99.90;;;;;;5074339;28;20266;-65
2023/04/11 00:06:55;;;;;;;5.47;5.17;;;9.40;99.90;;;;;;5074282;28;20676;-66
2023/04/11 00:09:21;;;;;;;6.17;5.77;;;9.40;99.90;;;;;;5072436;28;20209;-66
2023/04/11 00:11:47;;;;;;;6.37;5.83;;;9.40;99.90;;;;;;5074507;28;20174;-66
2023/04/11 00:14:14;;;;;;;5.53;5.23;;;9.50;99.90;;;;;;5072735;28;20174;-66
2023/04/11 00:16:41;;;;;;;6.33;5.70;;;9.50;99.90;;;;;;5074113;28;20178;-66
2023/04/11 00:19:08;;;;;;;5.57;5.07;;;9.60;99.90;;;;;;5073728;28;20590;-65
2023/04/11 00:21:38;;;;;;;5.93;5.33;;;9.70;99.90;;;;;;5074225;28;20227;-65
2023/04/11 00:24:08;;;;;;;5.53;5.23;;;9.70;99.90;;;;;;5073878;28;20568;-67
2023/04/11 00:26:34;;;;;;;5.07;4.83;;;9.80;99.90;;;;;;5074215;28;20198;-66
2023/04/11 00:29:00;;;;;;;5.40;5.17;;;9.90;99.90;;;;;;5073808;28;20736;-66
2023/04/11 00:31:25;;;;;;;5.33;5.03;;;9.90;99.90;;;;;;5073689;28;20200;-66
2023/04/11 00:33:51;;;;;;;5.50;5.00;;;9.90;99.90;;;;;;5073710;28;20185;-65
2023/04/11 00:36:16;;;;;;;5.70;5.40;;;10.00;99.90;;;;;;5073644;28;20198;-66
2023/04/11 00:38:43;;;;;;;5.10;4.83;;;10.00;99.90;;;;;;5072517;28;20185;-66
2023/04/11 00:41:09;;;;;;;5.93;5.03;;;10.00;99.90;;;;;;5073503;28;20174;-66
2023/04/11 00:43:35;;;;;;;7.20;5.63;;;10.10;99.90;;;;;;5073719;28;20186;-66
2023/04/11 00:46:00;;;;;;;5.50;5.00;;;10.10;99.90;;;;;;5073358;28;20203;-66
2023/04/11 00:48:27;;;;;;;5.27;5.00;;;10.10;99.90;;;;;;5072307;28;20732;-65
2023/04/11 00:50:53;;;;;;;5.37;4.97;;;10.00;99.90;;;;;;5073354;28;20566;-66
2023/04/11 00:53:19;;;;;;;4.90;4.50;;;10.00;99.90;;;;;;5072684;28;20174;-65
2023/04/11 00:55:45;;;;;;;6.80;6.27;;;10.00;99.90;;;;;;5073524;28;20563;-65
2023/04/11 00:58:11;;;;;;;6.10;5.73;;;10.00;99.90;;;;;;5072115;28;20533;-65
2023/04/11 01:00:37;;;;;;;11.10;8.20;;;9.90;99.90;;;;;;5073030;28;20174;-65
2023/04/11 01:03:03;;;;;;;7.03;6.63;;;9.90;99.90;;;;;;5073386;28;20209;-65
2023/04/11 01:05:32;;;;;;;8.27;7.77;;;9.90;99.90;;;;;;5074022;28;20198;-65
2023/04/11 01:07:58;;;;;;;5.83;5.40;;;9.90;99.90;;;;;;5073046;28;20170;-65
2023/04/11 01:10:29;;;;;;;7.70;6.57;;;10.00;99.90;;;;;;5072688;28;20623;-65
2023/04/11 01:12:58;;;;;;;7.13;6.77;;;10.00;99.90;;;;;;5072690;28;20194;-65
2023/04/11 01:15:24;;;;;;;5.53;5.23;;;9.90;99.90;;;;;;5072993;28;20260;-66
2023/04/11 01:17:51;;;;;;;6.50;5.90;;;9.90;99.90;;;;;;5073010;28;20185;-65
2023/04/11 01:20:17;;;;;;;8.97;5.13;;;9.80;99.90;;;;;;5072599;28;20213;-66
2023/04/11 01:22:44;;;;;;;9.67;5.83;;;9.70;99.90;;;;;;5073069;28;20564;-65
2023/04/11 01:25:11;;;;;;;7.73;6.63;;;9.60;99.90;;;;;;5072785;28;20690;-65
2023/04/11 01:27:37;;;;;;;7.00;6.17;;;9.50;99.90;;;;;;5073051;28;20190;-66
2023/04/11 01:30:04;;;;;;;11.10;6.73;;;9.40;99.90;;;;;;5072122;28;20213;-65
2023/04/11 01:32:30;;;;;;;7.13;6.63;;;9.30;99.90;;;;;;5053525;28;20181;-64
2023/04/11 01:34:57;;;;;;;7.67;6.00;;;9.30;99.90;;;;;;5052897;28;20176;-65
2023/04/11 01:37:23;;;;;;;7.00;6.23;;;9.20;99.90;;;;;;5052912;28;20195;-64
2023/04/11 01:39:49;;;;;;;7.53;6.20;;;9.10;99.90;;;;;;5064203;28;20175;-65
2023/04/11 01:42:15;;;;;;;6.50;6.00;;;9.10;99.90;;;;;;5072865;28;20197;-65
2023/04/11 01:44:41;;;;;;;6.23;5.77;;;9.10;99.90;;;;;;5072096;28;20234;-65
2023/04/11 01:47:06;;;;;;;7.23;6.53;;;9.20;99.90;;;;;;5072504;28;20213;-64
2023/04/11 01:49:32;;;;;;;6.37;5.87;;;9.20;99.90;;;;;;5071971;28;20212;-65
2023/04/11 01:51:58;;;;;;;8.37;7.53;;;9.30;99.90;;;;;;5072375;28;20299;-64
2023/04/11 01:54:24;;;;;;;7.80;7.03;;;9.30;99.90;;;;;;5072092;28;20255;-64
2023/04/11 01:56:51;;;;;;;11.37;6.40;;;9.40;99.90;;;;;;5072404;28;20268;-64
2023/04/11 01:59:16;;;;;;;6.57;5.30;;;9.40;99.90;;;;;;5071878;28;20177;-64
2023/04/11 02:01:45;;;;;;;8.47;6.53;;;9.40;99.90;;;;;;5072470;28;20259;-65
2023/04/11 02:04:11;;;;;;;11.07;6.00;;;9.40;99.90;;;;;;5072280;28;20677;-64
2023/04/11 02:06:37;;;;;;;6.87;6.23;;;9.40;99.90;;;;;;5072202;28;20190;-65
2023/04/11 02:09:03;;;;;;;8.60;5.90;;;9.30;99.90;;;;;;5072674;28;20209;-64
2023/04/11 02:11:29;;;;;;;7.83;7.23;;;9.30;99.90;;;;;;5071939;28;20170;-66
2023/04/11 02:13:54;;;;;;;12.30;7.07;;;9.30;99.90;;;;;;5071784;28;20253;-66
2023/04/11 02:16:24;;;;;;;9.63;7.00;;;9.30;99.90;;;;;;5070867;28;20194;-65
2023/04/11 02:18:51;;;;;;;6.73;6.33;;;9.20;99.90;;;;;;5072062;28;20181;-64
2023/04/11 02:21:16;;;;;;;6.03;5.63;;;9.20;99.90;;;;;;5071385;28;20227;-65
2023/04/11 02:23:42;;;;;;;11.17;6.23;;;9.20;99.90;;;;;;5071948;28;20174;-64
2023/04/11 02:26:08;;;;;;;7.37;6.87;;;9.20;99.90;;;;;;5071650;28;20241;-64
2023/04/11 02:28:35;;;;;;;10.37;8.20;;;9.20;99.90;;;;;;5071650;28;20193;-64
2023/04/11 02:31:01;;;;;;;8.77;6.80;;;9.20;99.90;;;;;;5071269;28;20174;-64
2023/04/11 02:33:27;;;;;;;14.03;7.67;;;9.20;99.90;;;;;;5071725;28;20707;-64
2023/04/11 02:35:53;;;;;;;9.87;7.27;;;9.20;99.90;;;;;;5071310;28;20328;-65
2023/04/11 02:38:19;;;;;;;19.87;7.00;;;9.20;99.90;;;;;;5071734;28;20174;-65
2023/04/11 02:40:45;;;;;;;7.07;6.47;;;9.20;99.90;;;;;;5070966;28;20228;-65
2023/04/11 02:43:11;;;;;;;7.80;7.00;;;9.20;99.90;;;;;;5071588;28;20180;-65
2023/04/11 02:45:37;;;;;;;10.70;6.53;;;9.10;99.90;;;;;;5071422;28;20174;-65
2023/04/11 02:48:03;;;;;;;7.33;6.37;;;9.00;99.90;;;;;;5071483;28;20236;-64
2023/04/11 02:50:28;;;;;;;10.10;7.30;;;9.00;99.90;;;;;;5070989;28;20261;-64
2023/04/11 02:52:54;;;;;;;9.23;6.50;;;8.90;99.90;;;;;;5070151;28;20170;-64
2023/04/11 02:55:23;;;;;;;8.47;6.43;;;8.90;99.90;;;;;;5071587;28;20166;-65
2023/04/11 02:57:49;;;;;;;6.00;5.50;;;8.80;99.90;;;;;;5071245;28;20222;-65
2023/04/11 03:00:15;;;;;;;7.00;6.30;;;8.80;99.90;;;;;;5071389;28;20765;-65
2023/04/11 03:02:42;;;;;;;7.90;6.07;;;8.70;99.90;;;;;;5071191;28;20170;-64
2023/04/11 03:05:08;;;;;;;9.47;7.27;;;8.60;99.90;;;;;;5071053;28;20185;-65
2023/04/11 03:07:33;;;;;;;6.73;6.07;;;8.60;99.90;;;;;;5071157;28;20243;-65
2023/04/11 03:09:59;;;;;;;6.30;5.60;;;8.50;99.90;;;;;;5070808;28;20205;-64
2023/04/11 03:12:25;;;;;;;11.50;6.53;;;8.50;99.90;;;;;;5071326;28;20194;-65
2023/04/11 03:14:51;;;;;;;9.13;6.10;;;8.40;99.90;;;;;;5071016;28;20224;-65
2023/04/11 03:17:17;;;;;;;7.30;5.97;;;8.40;99.90;;;;;;5071138;28;20307;-65
2023/04/11 03:19:43;;;;;;;7.23;6.53;;;8.30;99.90;;;;;;5070944;28;20660;-64
2023/04/11 03:22:10;;;;;;;9.03;7.97;;;8.30;99.90;;;;;;5069704;28;20231;-66
2023/04/11 03:24:38;;;;;;;11.33;6.83;;;8.30;99.90;;;;;;5071430;28;20181;-65
2023/04/11 03:27:04;;;;;;;9.80;5.93;;;8.20;99.90;;;;;;5070937;28;20190;-64
2023/04/11 03:29:31;;;;;;;8.83;5.53;;;8.20;99.90;;;;;;5070900;28;20255;-64
2023/04/11 03:31:57;;;;;;;7.13;6.27;;;8.20;99.90;;;;;;5070823;28;20249;-65
2023/04/11 03:34:22;;;;;;;7.07;6.47;;;8.20;99.90;;;;;;5071205;28;20257;-65
2023/04/11 03:36:48;;;;;;;7.80;7.30;;;8.10;99.90;;;;;;5074289;28;20236;-65
2023/04/11 03:39:14;;;;;;;15.33;8.03;;;8.10;99.90;;;;;;5074548;28;20265;-64
2023/04/11 03:41:39;;;;;;;10.47;9.30;;;8.10;99.90;;;;;;5074829;28;20201;-64
2023/04/11 03:44:05;;;;;;;13.03;7.60;;;8.10;99.90;;;;;;5074649;28;20268;-64
2023/04/11 03:46:30;;;;;;;7.67;6.97;;;8.10;99.90;;;;;;5074670;28;20190;-63
2023/04/11 03:48:56;;;;;;;8.50;6.97;;;8.10;99.90;;;;;;5074495;28;20614;-63
2023/04/11 03:51:21;;;;;;;8.40;7.57;;;8.10;99.90;;;;;;5074506;28;20290;-65
2023/04/11 03:53:47;;;;;;;11.80;8.13;;;8.10;99.90;;;;;;5074454;28;20656;-64
2023/04/11 03:56:13;;;;;;;12.90;7.50;;;8.10;99.90;;;;;;5073377;28;20190;-65
2023/04/11 03:58:39;;;;;;;10.07;7.60;;;8.10;99.90;;;;;;5074320;28;20264;-65
2023/04/11 04:01:05;;;;;;;8.20;7.47;;;8.20;99.90;;;;;;5074324;28;20528;-65
2023/04/11 04:03:30;;;;;;;16.30;8.03;;;8.20;99.90;;;;;;5074389;28;20178;-65
2023/04/11 04:05:56;;;;;;;9.00;7.83;;;8.20;99.90;;;;;;5074458;28;20200;-64
2023/04/11 04:08:21;;;;;;;7.73;7.20;;;8.30;99.90;;;;;;5074437;28;20566;-64
2023/04/11 04:10:47;;;;;;;18.53;8.17;;;8.30;99.90;;;;;;5074104;28;20312;-65
2023/04/11 04:13:13;;;;;;;9.37;8.57;;;8.40;99.90;;;;;;5074238;28;20235;-64
2023/04/11 04:15:38;;;;;;;11.60;7.33;;;8.40;99.90;;;;;;5074297;28;20173;-64
2023/04/11 04:18:04;;;;;;;8.23;7.60;;;8.50;99.90;;;;;;5074526;28;20181;-63
2023/04/11 04:20:30;;;;;;;8.53;7.37;;;8.50;99.90;;;;;;5074103;28;20628;-63
2023/04/11 04:22:59;;;;;;;7.67;6.87;;;8.50;99.90;;;;;;5074141;28;20224;-63
2023/04/11 04:25:25;;;;;;;6.30;5.90;;;8.50;99.90;;;;;;5074409;28;20592;-63
2023/04/11 04:27:52;;;;;;;9.50;6.83;;;8.40;99.90;;;;;;5073798;28;20691;-63
2023/04/11 04:30:18;;;;;;;6.33;6.00;;;8.40;99.90;;;;;;5073954;28;20194;-63
2023/04/11 04:32:44;;;;;;;9.03;6.17;;;8.40;99.90;;;;;;5073887;28;20186;-63
2023/04/11 04:35:15;;;;;;;10.60;5.90;;;8.40;99.90;;;;;;5074117;28;20223;-63
2023/04/11 04:37:44;;;;;;;6.57;6.20;;;8.40;99.90;;;;;;5073689;28;20217;-64
2023/04/11 04:40:12;;;;;;;8.47;5.87;;;8.40;99.90;;;;;;5073616;28;20209;-64
2023/04/11 04:42:40;;;;;;;15.50;6.57;;;8.40;99.90;;;;;;5073495;28;20708;-63
2023/04/11 04:45:06;;;;;;;10.60;8.47;;;8.40;99.90;;;;;;5073887;28;20528;-64
2023/04/11 04:47:34;;;;;;;6.67;6.27;;;8.40;99.90;;;;;;5071897;28;20233;-64
2023/04/11 04:49:59;;;;;;;9.23;6.67;;;8.50;99.90;;;;;;5073413;28;20309;-64
2023/04/11 04:52:26;;;;;;;6.70;6.30;;;8.60;99.90;;;;;;5073589;28;20762;-64
2023/04/11 04:54:56;;;;;;;7.43;6.73;;;8.60;99.90;;;;;;5073474;28;20170;-64
2023/04/11 04:57:23;;;;;;;6.90;6.00;;;8.60;99.90;;;;;;5072192;28;20598;-64
2023/04/11 04:59:48;;;;;;;7.83;5.60;;;8.60;99.90;;;;;;5073107;28;20192;-64
2023/04/11 05:02:15;;;;;;;12.97;6.07;;;8.60;99.90;;;;;;5073395;28;20181;-64
2023/04/11 05:04:43;;;;;;;13.20;6.50;;;8.50;99.90;;;;;;5073256;28;20678;-64
2023/04/11 05:07:09;;;;;;;9.57;5.90;;;8.50;99.90;;;;;;5073412;28;20193;-64
2023/04/11 05:09:35;;;;;;;8.90;6.23;;;8.50;99.90;;;;;;5072672;28;20197;-64
2023/04/11 05:12:01;;;;;;;9.93;6.23;;;8.60;99.90;;;;;;5073346;28;20249;-64
2023/04/11 05:14:26;;;;;;;7.17;5.50;;;8.60;99.90;;;;;;5073028;28;20256;-64
2023/04/11 05:16:52;;;;;;;11.07;6.30;;;8.60;99.90;;;;;;5072616;28;20190;-65
2023/04/11 05:19:18;;;;;;;12.63;7.30;;;8.60;99.90;;;;;;5072947;28;20170;-65
2023/04/11 05:21:43;;;;;;;7.13;6.23;;;8.50;99.90;;;;;;5072084;28;20540;-64
2023/04/11 05:24:09;;;;;;;7.93;6.73;;;8.50;99.90;;;;;;5073067;28;20672;-63
2023/04/11 05:26:35;;;;;;;8.83;6.67;;;8.50;99.90;;;;;;5073055;28;20198;-64
2023/04/11 05:29:00;;;;;;;12.63;6.73;;;8.50;99.90;;;;;;5072517;28;20206;-64
2023/04/11 05:31:26;;;;;;;8.57;6.40;;;8.50;99.90;;;;;;5072656;28;20162;-64
2023/04/11 05:33:52;;;;;;;8.50;7.80;;;8.50;99.90;;;;;;5066234;28;20183;-64
2023/04/11 05:36:17;;;;;;;7.50;6.20;;;8.60;99.90;;;;;;5063159;28;20551;-64
2023/04/11 05:38:44;;;;;;;11.80;6.37;;;8.70;99.90;;;;;;5072465;28;20181;-64
2023/04/11 05:41:10;;;;;;;9.07;8.20;;;8.80;99.90;;;;;;5072105;28;20182;-65
2023/04/11 05:43:36;;;;;;;7.53;5.83;;;8.90;99.90;;;;;;5072415;28;20178;-65
2023/04/11 05:46:03;;;;;;;7.47;6.67;;;9.00;99.90;;;;;;5072447;28;20202;-65
2023/04/11 05:48:28;;;;;;;5.77;5.37;;;9.00;99.90;;;;;;5072349;28;20735;-64
2023/04/11 05:50:56;;;;;;;6.97;6.23;;;9.10;99.90;;;;;;5071934;28;20249;-64
2023/04/11 05:53:21;;;;;;;7.30;6.33;;;9.10;99.90;;;;;;5072193;28;20178;-64
2023/04/11 05:55:47;;;;;;;6.30;5.90;;;9.10;99.90;;;;;;5072128;28;20170;-65
2023/04/11 05:58:12;;;;;;;8.00;5.83;;;9.20;1.00;;;;;;5067538;28;20232;-65
2023/04/11 06:00:38;;;;;;;5.97;5.37;;;9.30;1.00;;;;;;5070372;28;20561;-64
2023/04/11 06:03:06;;;;;;;8.53;6.23;;;9.30;1.00;;;;;;5071800;28;20181;-65
2023/04/11 06:05:32;;;;;;;8.90;8.20;;;9.40;99.90;;;;;;5071679;28;20274;-63
2023/04/11 06:07:58;;;;;;;8.23;7.43;;;9.40;1.00;;;;;;5071619;28;20210;-63
2023/04/11 06:10:24;;;;;;;8.37;5.73;;;9.40;1.00;;;;;;5071799;28;20298;-63
2023/04/11 06:12:50;;;;;;;7.37;6.77;;;9.30;99.90;;;;;;5071857;28;20219;-64
2023/04/11 06:15:16;;;;;;;14.37;10.00;;;9.30;99.90;;;;;;5072202;28;20178;-64
2023/04/11 06:17:41;;;;;;;7.87;7.20;;;9.20;99.90;;;;;;5071735;28;20196;-64
2023/04/11 06:20:09;;;;;;;7.63;6.93;;;9.10;99.90;;;;;;5070350;28;20640;-64
2023/04/11 06:22:34;;;;;;;6.83;6.53;;;9.10;99.90;;;;;;5071478;28;20182;-63
2023/04/11 06:25:00;;;;;;;7.50;6.37;;;9.20;99.90;;;;;;5071780;28;20594;-64
2023/04/11 06:27:26;;;;;;;11.57;6.10;;;9.60;99.90;;;;;;5071510;28;20201;-63
2023/04/11 06:29:51;;;;;;;11.57;7.47;;;9.80;99.90;;;;;;5071005;28;20221;-64
2023/04/11 06:32:17;;;;;;;9.20;6.87;;;9.80;99.90;;;;;;5071452;28;20178;-64
2023/04/11 06:34:42;;;;;;;6.67;5.90;;;9.80;99.90;;;;;;5071471;28;20173;-64
2023/04/11 06:37:08;;;;;;;10.03;6.43;;;9.80;99.90;;;;;;5070259;28;20652;-63
2023/04/11 06:39:34;;;;;;;5.53;5.13;;;10.00;99.90;;;;;;5071203;28;20182;-64
2023/04/11 06:42:01;;;;;;;10.63;5.17;;;10.30;99.90;;;;;;5071449;28;20551;-64
2023/04/11 06:44:27;;;;;;;4.97;4.47;;;10.70;99.90;;;;;;5073465;28;20174;-64
2023/04/11 06:46:53;;;;;;;5.50;4.43;;;10.90;99.90;;;;;;5071709;28;20202;-64
2023/04/11 06:49:18;;;;;;;5.47;4.80;;;10.90;99.90;;;;;;5070910;28;20209;-64
2023/04/11 06:51:49;;;;;;;6.57;5.07;;;11.00;99.90;;;;;;5071310;28;20177;-64
2023/04/11 06:54:15;;;;;;;9.97;5.80;;;10.90;99.90;;;;;;5071065;28;20257;-65
2023/04/11 06:56:42;;;;;;;6.53;5.63;;;10.80;99.90;;;;;;5071040;28;20192;-64
2023/04/11 06:59:07;;;;;;;5.63;5.23;;;10.80;99.90;;;;;;5070866;28;20185;-65
2023/04/11 07:01:38;;;;;;;8.97;5.30;;;11.00;99.90;;;;;;5071337;28;20181;-65
2023/04/11 07:04:04;;;;;;;14.50;5.63;;;11.00;99.90;;;;;;5070885;28;20663;-64
2023/04/11 07:06:30;;;;;;;6.90;4.70;;;11.00;99.90;;;;;;5071252;28;20567;-65
2023/04/11 07:08:56;;;;;;;5.33;4.43;;;11.10;99.90;;;;;;5070718;28;20259;-65
2023/04/11 07:11:22;;;;;;;5.57;5.07;;;11.10;99.90;;;;;;5073381;28;20178;-65
2023/04/11 07:13:49;;;;;;;7.80;5.37;;;11.10;99.90;;;;;;5075012;28;20239;-64
2023/04/11 07:16:14;;;;;;;7.33;5.00;;;11.10;99.90;;;;;;5075336;28;20268;-64
2023/04/11 07:18:40;;;;;;;5.27;4.70;;;11.30;99.90;;;;;;5074643;28;20257;-65
2023/04/11 07:21:10;;;;;;;9.90;4.87;;;11.60;99.90;;;;;;5074600;28;20185;-65
2023/04/11 07:23:35;;;;;;;11.07;5.13;;;12.10;99.90;;;;;;5055175;28;20170;-65
2023/04/11 07:26:02;;;;;;;8.27;5.33;;;12.60;99.90;;;;;;5055069;28;20282;-65
2023/04/11 07:28:30;;;;;;;6.97;5.40;;;12.70;99.90;;;;;;5074727;28;20186;-65
2023/04/11 07:30:56;;;;;;;5.30;4.87;;;12.30;99.90;;;;;;5074554;28;20170;-65
2023/04/11 07:33:22;;;;;;;7.33;5.13;;;11.90;99.90;;;;;;5072763;28;20641;-65
2023/04/11 07:35:48;;;;;;;10.63;10.03;;;12.00;99.90;;;;;;5075082;28;20205;-66
2023/04/11 07:38:14;;;;;;;5.77;4.97;;;12.10;99.90;;;;;;5073582;28;20177;-65
2023/04/11 07:40:40;;;;;;;5.90;5.23;;;12.00;99.90;;;;;;5074630;28;20599;-64
2023/04/11 07:43:05;;;;;;;6.23;5.63;;;11.90;99.90;;;;;;5074410;28;20269;-65
2023/04/11 07:45:32;;;;;;;6.07;5.37;;;11.80;99.90;;;;;;5074815;28;20170;-66
2023/04/11 07:47:59;;;;;;;11.47;5.80;;;11.70;99.90;;;;;;5074295;28;20170;-65
2023/04/11 07:50:24;;;;;;;5.20;4.70;;;11.80;99.90;;;;;;5074263;28;20198;-66
2023/04/11 07:52:50;;;;;;;7.57;4.23;;;12.10;99.90;;;;;;5073158;28;20171;-65
2023/04/11 07:55:16;;;;;;;7.87;5.03;;;12.40;99.90;;;;;;5074828;28;20225;-65
2023/04/11 07:57:41;;;;;;;5.40;4.87;;;12.50;99.90;;;;;;5074361;28;20194;-65
2023/04/11 08:00:09;;;;;;;6.23;4.53;;;12.90;99.90;;;;;;5074106;28;20587;-66
2023/04/11 08:02:34;;;;;;;6.90;4.17;;;13.30;99.90;;;;;;5074292;28;20193;-64
2023/04/11 08:05:00;;;;;;;10.97;4.47;;;13.40;99.90;;;;;;5074042;28;20182;-64
2023/04/11 08:07:25;;;;;;;5.03;4.73;;;13.20;99.90;;;;;;5069575;28;20715;-66
2023/04/11 08:09:51;;;;;;;6.30;4.13;;;13.30;99.90;;;;;;5073692;28;20205;-65
2023/04/11 08:12:17;;;;;;;6.33;3.70;;;13.80;99.90;;;;;;5072883;28;20201;-65
2023/04/11 08:14:43;;;;;;;4.10;3.80;;;14.40;99.90;;;;;;5074037;28;20167;-66
2023/04/11 08:17:08;;;;;;;3.83;3.57;;;14.80;99.90;;;;;;5073808;28;20202;-65
2023/04/11 08:19:35;;;;;;;5.70;4.03;;;15.10;99.90;;;;;;5073860;28;20178;-65
2023/04/11 08:22:01;;;;;;;7.03;4.20;;;15.20;99.90;;;;;;5073296;28;20193;-66
2023/04/11 08:24:26;;;;;;;4.73;3.50;;;15.10;99.90;;;;;;5073018;28;20178;-66
2023/04/11 08:26:52;;;;;;;4.37;3.97;;;15.20;99.90;;;;;;5073487;28;20205;-66
2023/04/11 08:29:17;;;;;;;5.20;4.47;;;15.30;99.90;;;;;;5073742;28;20208;-66
2023/04/11 08:31:44;;;;;;;5.90;4.93;;;15.10;99.90;;;;;;5073407;28;20228;-66
2023/04/11 08:34:10;;;;;;;10.10;4.90;;;14.50;99.90;;;;;;5071860;28;20649;-66
2023/04/11 08:36:36;;;;;;;4.37;4.00;;;14.50;99.90;;;;;;5073563;28;20198;-66
2023/04/11 08:39:02;;;;;;;3.40;3.20;;;14.90;99.90;;;;;;5073570;28;20190;-66
2023/04/11 08:41:31;;;;;;;5.97;4.37;;;15.00;99.90;;;;;;5073360;28;20179;-66
2023/04/11 08:43:57;;;;;;;4.03;3.63;;;14.70;99.90;;;;;;5073009;28;20189;-65
2023/04/11 08:46:22;;;;;;;4.90;4.70;;;14.50;99.90;;;;;;5073435;28;20206;-65
2023/04/11 08:48:48;;;;;;;4.40;3.97;;;14.40;99.90;;;;;;5073112;28;20213;-65
2023/04/11 08:51:25;;;;;;;7.90;3.60;;;14.00;99.90;;;;;;5072111;28;20667;-65
2023/04/11 08:53:56;;;;;;;4.50;3.97;;;13.50;99.90;;;;;;5073321;28;20162;-66
2023/04/11 08:56:22;;;;;;;4.10;3.80;;;13.20;99.90;;;;;;5073300;28;20217;-66
2023/04/11 08:58:47;;;;;;;6.23;4.17;;;13.10;99.90;;;;;;5073313;28;20539;-66
2023/04/11 09:01:32;;;;;;;5.10;3.90;;;13.60;99.90;;;;;;5072784;28;20178;-66
2023/04/11 09:04:00;;;;;;;4.70;4.23;;;13.90;99.90;;;;;;5073209;28;20192;-65
2023/04/11 09:06:29;;;;;;;4.93;3.83;;;13.50;99.90;;;;;;5071600;28;20194;-66
2023/04/11 09:08:57;;;;;;;10.83;4.90;;;13.10;99.90;;;;;;5073006;28;20202;-66
2023/04/11 09:11:24;;;;;;;4.20;3.90;;;12.90;99.90;;;;;;5072884;28;20170;-65
2023/04/11 09:14:08;;;;;;;5.03;4.13;;;13.00;99.90;;;;;;5073111;28;20570;-65
2023/04/11 09:16:36;;;;;;;7.13;4.37;;;13.10;99.90;;;;;;5072696;28;20191;-66
2023/04/11 09:19:02;;;;;;;4.43;4.13;;;13.10;99.90;;;;;;5072841;28;20186;-66
2023/04/11 09:21:28;;;;;;;6.53;3.93;;;13.10;99.90;;;;;;5072634;28;20185;-65
2023/04/11 09:24:13;;;;;;;4.17;3.80;;;13.20;99.90;;;;;;5072916;28;20170;-64
2023/04/11 09:26:39;;;;;;;4.10;3.67;;;13.40;99.90;;;;;;5053145;28;20191;-64
2023/04/11 09:29:04;;;;;;;4.53;3.80;;;14.10;99.90;;;;;;5052755;28;20202;-65
2023/04/11 09:31:41;;;;;;;3.90;3.70;;;14.90;99.90;;;;;;5071405;28;20219;-65
2023/04/11 09:34:06;;;;;;;3.90;3.60;;;14.90;99.90;;;;;;5071938;28;20638;-65
2023/04/11 09:36:32;;;;;;;4.37;3.63;;;14.60;99.90;;;;;;5069011;28;20223;-65
2023/04/11 09:38:58;;;;;;;5.37;4.90;;;14.20;99.90;;;;;;5052255;28;20167;-65
2023/04/11 09:41:35;;;;;;;5.43;5.03;;;13.90;99.90;;;;;;5052482;28;20539;-65
2023/04/11 09:44:01;;;;;;;6.10;3.63;;;13.90;99.90;;;;;;5052493;28;20189;-65
2023/04/11 09:46:27;;;;;;;4.50;4.20;;;14.00;99.90;;;;;;5069953;28;20210;-65
2023/04/11 09:48:54;;;;;;;7.63;7.17;;;14.40;99.90;;;;;;5072255;28;20194;-65
2023/04/11 09:51:20;;;;;;;4.17;3.97;;;14.60;99.90;;;;;;5072072;28;20532;-64
2023/04/11 09:53:46;;;;;;;4.40;4.20;;;14.90;99.90;;;;;;5072116;28;20249;-65
2023/04/11 09:56:12;;;;;;;4.83;4.40;;;15.00;99.90;;;;;;5072356;28;20281;-64
2023/04/11 09:58:39;;;;;;;8.93;4.03;;;15.40;99.90;;;;;;5072357;28;20202;-65
2023/04/11 10:01:09;;;;;;;5.73;3.50;;;15.80;99.90;;;;;;5071404;28;20216;-65
2023/04/11 10:03:37;;;;;;;3.53;3.23;;;15.90;99.90;;;;;;5072266;28;20257;-65
2023/04/11 10:06:13;;;;;;;3.90;3.70;;;16.10;99.90;;;;;;5071642;28;20705;-65
2023/04/11 10:08:40;;;;;;;7.33;4.57;;;15.90;99.90;;;;;;5072099;28;20221;-65
2023/04/11 10:11:13;;;;;;;4.23;3.77;;;15.50;99.90;;;;;;5071244;28;20546;-65
2023/04/11 10:13:39;;;;;;;4.00;3.70;;;15.40;99.90;;;;;;5072135;28;20170;-65
2023/04/11 10:16:10;;;;;;;11.40;4.83;;;15.50;99.90;;;;;;5069555;28;20194;-65
2023/04/11 10:18:36;;;;;;;4.67;4.23;;;15.40;99.90;;;;;;5071714;28;20186;-65
2023/04/11 10:21:04;;;;;;;4.47;4.03;;;15.10;99.90;;;;;;5071238;28;20172;-66
2023/04/11 10:23:56;;;;;;;6.20;3.63;;;14.90;99.90;;;;;;5072178;28;20174;-67
2023/04/11 10:26:51;;;;;;;7.17;3.70;;;15.00;99.90;;;;;;5071695;28;20203;-66
2023/04/11 10:29:32;;;;;;;4.50;4.30;;;15.50;99.90;;;;;;5071285;28;20237;-66
2023/04/11 10:32:10;;;;;;;4.93;3.77;;;15.50;99.90;;;;;;5071445;28;20173;-66
2023/04/11 10:34:38;;;;;;;5.77;4.67;;;15.70;99.90;;;;;;5071477;28;20232;-66
2023/04/11 10:37:08;;;;;;;6.67;4.03;;;15.80;99.90;;;;;;5071350;28;20199;-66
2023/04/11 10:39:52;;;;;;;10.20;4.57;;;15.50;99.90;;;;;;5069906;28;20581;-68
2023/04/11 10:42:32;;;;;;;3.80;3.60;;;15.10;99.90;;;;;;5071565;28;20640;-66
2023/04/11 10:45:17;;;;;;;4.57;4.30;;;15.30;99.90;;;;;;5071114;28;20182;-66
2023/04/11 10:47:55;;;;;;;4.07;3.77;;;15.90;99.90;;;;;;5069304;28;20205;-66
2023/04/11 10:50:30;;;;;;;3.47;3.27;;;16.20;99.90;;;;;;5071012;28;20214;-67
2023/04/11 10:52:56;;;;;;;4.77;4.47;;;16.30;99.90;;;;;;5069661;28;20517;-66
2023/04/11 10:55:23;;;;;;;4.50;4.20;;;16.20;99.90;;;;;;5071463;28;20608;-66
2023/04/11 10:58:21;;;;;;;4.23;3.93;;;16.40;99.90;;;;;;5071219;28;20273;-66
2023/04/11 11:00:50;;;;;;;3.87;3.67;;;16.40;99.90;;;;;;5051232;28;20175;-65
2023/04/11 11:03:19;;;;;;;4.07;3.77;;;16.30;99.90;;;;;;5052202;28;20174;-66
2023/04/11 11:05:46;;;;;;;4.17;3.50;;;16.50;99.90;;;;;;5071282;28;20260;-66
2023/04/11 11:08:12;;;;;;;6.53;3.40;;;16.90;99.90;;;;;;5071253;28;20178;-65
2023/04/11 11:10:43;;;;;;;4.60;3.87;;;17.20;99.90;;;;;;5070291;28;20213;-66
2023/04/11 11:13:09;;;;;;;4.90;3.50;;;17.20;99.90;;;;;;5070966;28;20315;-66
2023/04/11 11:15:36;;;;;;;3.53;3.33;;;17.30;99.90;;;;;;5051180;28;20539;-66
2023/04/11 11:18:08;;;;;;;3.33;3.23;;;17.20;99.10;;;;;;5050995;28;20653;-66
2023/04/11 11:20:38;;;;;;;3.77;3.47;;;17.00;97.80;;;;;;5068870;28;20189;-66
2023/04/11 11:23:06;;;;;;;3.73;3.43;;;16.70;98.30;;;;;;5069579;28;20235;-66
2023/04/11 11:25:32;;;;;;;3.90;3.70;;;16.10;99.20;;;;;;5086590;28;20193;-66
2023/04/11 11:28:03;;;;;;;5.30;3.80;;;15.60;99.50;;;;;;5071232;28;20185;-67
2023/04/11 11:30:29;;;;;;;5.63;3.93;;;15.20;99.90;;;;;;5069358;28;20227;-67
2023/04/11 11:32:55;;;;;;;4.70;3.97;;;15.20;99.90;;;;;;5071043;28;20171;-66
2023/04/11 11:35:24;;;;;;;5.33;4.30;;;14.90;99.90;;;;;;5069555;28;20174;-67
2023/04/11 11:37:52;;;;;;;4.37;4.13;;;14.80;99.90;;;;;;5065936;28;20201;-66
2023/04/11 11:40:20;;;;;;;3.83;3.63;;;14.80;99.90;;;;;;5050796;28;20636;-67
2023/04/11 11:42:50;;;;;;;3.73;3.50;;;14.90;99.90;;;;;;5058774;28;20678;-67
2023/04/11 11:45:21;;;;;;;4.27;3.87;;;15.50;99.90;;;;;;5070924;28;20174;-66
2023/04/11 11:47:48;;;;;;;3.73;3.53;;;16.30;99.90;;;;;;5070700;28;20717;-66
2023/04/11 11:50:27;;;;;;;4.33;3.50;;;16.20;99.90;;;;;;5070584;28;20206;-67
2023/04/11 11:52:53;;;;;;;6.40;3.90;;;15.80;99.90;;;;;;5067849;28;20182;-67
2023/04/11 11:55:18;;;;;;;4.83;4.43;;;15.40;99.90;;;;;;5070831;28;20166;-67
2023/04/11 11:57:45;;;;;;;3.83;3.60;;;15.70;99.90;;;;;;5073349;28;20299;-67
2023/04/11 12:00:11;;;;;;;7.80;3.50;;;16.20;99.90;;;;;;5072856;28;20178;-66
2023/04/11 12:02:39;;;;;;;5.20;3.43;;;16.30;98.70;;;;;;5074221;28;20255;-66
2023/04/11 12:05:05;;;;;;;5.20;3.87;;;15.90;99.30;;;;;;5074196;28;20225;-66
2023/04/11 12:07:32;;;;;;;6.20;3.80;;;15.90;99.90;;;;;;5074284;28;20403;-67
2023/04/11 12:10:02;;;;;;;4.00;3.70;;;16.30;99.70;;;;;;5073693;28;20206;-66
2023/04/11 12:12:37;;;;;;;5.40;3.27;;;16.70;99.60;;;;;;5074573;28;20174;-65
2023/04/11 12:15:09;;;;;;;3.57;3.37;;;16.70;98.60;;;;;;5073662;28;20182;-66
2023/04/11 12:17:35;;;;;;;4.90;3.87;;;16.80;99.80;;;;;;5074298;28;20186;-66
2023/04/11 12:20:01;;;;;;;4.33;3.57;;;17.10;99.90;;;;;;5073905;28;20544;-66
2023/04/11 12:22:29;;;;;;;4.30;3.90;;;17.40;98.90;;;;;;5072865;28;20182;-65
2023/04/11 12:25:12;;;;;;;3.47;3.27;;;17.70;99.80;;;;;;5072289;28;20670;-66
2023/04/11 12:27:39;;;;;;;3.33;3.13;;;18.00;99.10;;;;;;5072626;28;20205;-65
2023/04/11 12:30:05;;;;;;;4.93;3.30;;;18.00;95.40;;;;;;5074076;28;20205;-65
2023/04/11 12:32:32;;;;;;;5.10;3.03;;;18.00;95.40;;;;;;5069570;28;20175;-66
2023/04/11 12:34:58;;;;;;;3.97;3.73;;;17.40;94.10;;;;;;5073825;28;20170;-65
2023/04/11 12:37:24;;;;;;;4.60;3.40;;;16.70;96.30;;;;;;5073690;28;20569;-66
2023/04/11 12:39:50;;;;;;;3.73;3.53;;;16.30;98.50;;;;;;5073423;28;20181;-66
2023/04/11 12:42:16;;;;;;;4.80;4.40;;;16.30;96.90;;;;;;5073564;28;20239;-66
2023/04/11 12:44:42;;;;;;;3.83;3.20;;;16.20;98.30;;;;;;5073628;28;20178;-66
2023/04/11 12:47:08;;;;;;;4.00;3.70;;;16.70;99.90;;;;;;5073233;28;20212;-66
2023/04/11 12:49:33;;;;;;;3.67;3.37;;;17.30;99.00;;;;;;5073331;28;20210;-66
2023/04/11 12:51:59;;;;;;;3.90;3.53;;;17.50;97.00;;;;;;5072828;28;20170;-66